Jack C. Davis Observatory, Carson City, Nevada Weather observations

Data are for observation ending at time listed.
 Day   Time    Ave.   Ave.  Ave.  Vector   Max.   Stn.    Total    Solar   Ave.  
  of    of     Air    Rel.  Wind   Wind    Wind   Baro.  Precip.   Rad.    Soil  
Year   Day     Temp.  Hum.  Speed  Dir.    Gust   Pres.                    Temp. 
2026   (PST)    F      %     mph   deg.    mph     mb.     in.     W/m2     F   
------------------------------------------------------------------------------
 125   11:40   56.8    64    6.9   127     11.2   844.2    0.00     941    999.0
 125   11:50   56.1    65    8.0   127     14.2   844.2    0.00     821    999.0
 125   12:00   54.9    66    7.4   127     12.3   844.2    0.00     406    999.0
 125   12:10   56.1    65    7.2   131     10.7   844.2    0.00     598    999.0
 125   12:20   55.5    65    5.8   126     10.8   844.2    0.00     665    999.0
 125   12:30   57.3    62    6.0   148     10.1   844.1    0.00     758    999.0
 125   12:40   56.9    61    5.6   112     10.1   844.1    0.00    1015    999.0
 125   12:50   58.4    59    5.7   129     10.7   844.1    0.00    1021    999.0
 125   13:00   58.3    58    5.1   118     10.4   844.1    0.00    1019    999.0
 125   13:10   60.1    54    3.5   131      9.3   844.0    0.00     999    999.0
 125   13:20   60.4    54    5.2   118     10.2   844.0    0.00    1008    999.0
 125   13:30   61.4    51    2.8   168      7.1   843.9    0.00     957    999.0
 125   13:40   61.9    52    5.0   128      9.9   843.7    0.00     937    999.0
 125   13:50   61.7    51    4.8   140      8.5   843.7    0.00     912    999.0
 125   14:00   62.1    50    3.2   126      7.9   843.6    0.00     906    999.0
 125   14:10   62.4    48    4.1    96      9.1   843.5    0.00     867    999.0
 125   14:20   62.8    46    3.1   104      7.4   843.4    0.00     861    999.0
 125   14:30   63.9    44    3.7   175      7.2   843.3    0.00     823    999.0
 125   14:40   64.3    44    4.0   138      8.0   843.2    0.00     785    999.0
 125   14:50   64.2    43    3.7   144      7.5   843.2    0.00     780    999.0
 125   15:00   64.1    43    4.0   137      8.4   843.0    0.00     745    999.0
 125   15:10   65.0    41    3.3   142      8.6   842.9    0.00     718    999.0
 125   15:20   65.7    41    4.0   180      7.5   842.8    0.00     690    999.0
 125   15:30   67.8    37    2.6   192      6.7   842.8    0.00     660    999.0
 125   15:40   69.2    35    2.5   173      7.3   842.7    0.00     628    999.0
 125   15:50   66.5    38    4.0   140     10.2   842.6    0.00     596    999.0
 125   16:00   66.4    40    6.0   144     11.7   842.5    0.00     565    999.0
 125   16:10   66.5    38    3.8   138      7.7   842.5    0.00     533    999.0
 125   16:20   66.8    37    3.0   141      6.9   842.6    0.00     501    999.0
 125   16:30   67.5    37    3.6   195      6.6   842.6    0.00     466    999.0
 125   16:40   67.4    39    5.1   155      9.5   842.6    0.00     433    999.0
 125   16:50   67.0    39    4.7   166      8.6   842.6    0.00     398    999.0
 125   17:00   66.7    41    4.9   161      8.6   842.5    0.00     361    999.0
 125   17:10   66.4    41    4.8   158     10.3   842.5    0.00     323    999.0
 125   17:20   66.3    42    5.6   188      8.6   842.5    0.00     290    999.0
 125   17:30   65.6    43    6.1   193      9.8   842.6    0.00     257    999.0
 125   17:40   65.1    45    5.3   192      8.8   842.6    0.00     214    999.0
 125   17:50   64.1    46    4.9   186      7.5   842.5    0.00     131    999.0
 125   18:00   61.3    52    3.7   209      7.2   842.6    0.00      26    999.0
 125   18:10   58.7    59    2.6   220      4.3   842.5    0.00      20    999.0
 125   18:20   56.3    65    3.9   246      5.8   842.6    0.00      21    999.0
 125   18:30   55.9    65    3.1   269      4.8   842.7    0.00      18    999.0
 125   18:40   55.6    65    2.8   311      4.5   842.8    0.00      12    999.0
 125   18:50   56.0    60    3.5   287      9.9   842.9    0.00       8    999.0
 125   19:00   59.0    50    6.9   294     12.1   843.0    0.00       5    999.0
 125   19:10   59.3    50    2.4   303      9.1   843.1    0.00       2    999.0
 125   19:20   58.3    52    1.2   271      2.4   843.1    0.00       1    999.0
 125   19:30   58.1    53    1.8   335      3.9   843.2    0.00       0    999.0
 125   19:40   55.6    59    2.3   266      4.9   843.4    0.00       0    999.0
 125   19:50   57.4    54    2.8    60      6.4   843.5    0.00       0    999.0
 125   20:00   57.1    56    3.3    13      5.6   843.6    0.00       0    999.0
 125   20:10   55.9    59    2.7    22      6.1   843.7    0.00       0    999.0
 125   20:20   56.2    59    1.2   276      2.4   843.9    0.00       0    999.0
 125   20:30   55.9    60    2.2   304      3.7   844.1    0.00       0    999.0
 125   20:40   54.9    63    2.4   315      3.8   844.2    0.00       0    999.0
 125   20:50   55.0    63    1.3   334      2.6   844.4    0.00       0    999.0
 125   21:00   54.4    66    3.9   279      5.8   844.4    0.00       0    999.0
 125   21:10   53.7    68    2.6   310      4.0   844.5    0.00       0    999.0
 125   21:20   53.1    68    3.3   319      4.8   844.5    0.00       0    999.0
 125   21:30   53.6    66    1.6   315      3.5   844.6    0.00       0    999.0
 125   21:40   53.3    67    1.4   338      3.6   844.8    0.00       0    999.0
 125   21:50   53.8    66    1.4   322      2.6   844.9    0.00       0    999.0
 125   22:00   53.5    67    2.5    18      6.4   845.3    0.00       0    999.0
 125   22:10   53.2    68    2.8   271      7.3   845.5    0.00       0    999.0
 125   22:20   51.1    74    5.4   272      7.3   845.5    0.00       0    999.0
 125   22:30   52.9    67    2.7   189      5.1   845.6    0.00       0    999.0
 125   22:40   53.0    66    3.9   170      5.6   845.6    0.00       0    999.0
 125   22:50   52.8    66    3.1   268      5.3   845.6    0.00       0    999.0
 125   23:00   54.1    61    2.7   208      6.4   845.7    0.00       0    999.0
 125   23:10   52.4    67    1.6   300      4.1   845.7    0.00       0    999.0
 125   23:20   51.6    68    1.8   325      3.3   845.9    0.00       0    999.0
 125   23:30   51.5    68    2.2   334      3.9   845.9    0.00       0    999.0
 125   23:40   51.1    69    2.1   313      3.2   846.0    0.00       0    999.0
 125   23:50   50.2    72    1.6   334      2.9   846.2    0.00       0    999.0
 126    0:00   49.6    73    2.5   305      3.7   846.2    0.00       0    999.0
 126    0:10   48.7    75    3.0   301      4.4   846.3    0.00       0    999.0
 126    0:20   47.7    78    3.2   287      4.7   846.4    0.00       0    999.0
 126    0:30   47.2    79    3.7   280      5.1   846.3    0.00       0    999.0
 126    0:40   47.5    77    2.8   280      4.6   846.3    0.00       0    999.0
 126    0:50   47.7    77    2.5   293      4.4   846.3    0.00       0    999.0
 126    1:00   47.9    76    1.8   304      3.7   846.4    0.00       0    999.0
 126    1:10   48.1    76    2.2   297      4.3   846.5    0.00       0    999.0
 126    1:20   48.2    76    2.7   308      4.3   846.5    0.00       0    999.0
 126    1:30   48.7    74    3.0   301      3.8   846.6    0.00       0    999.0
 126    1:40   47.7    76    3.0   281      4.3   846.5    0.00       0    999.0
 126    1:50   46.9    78    4.4   272      5.3   846.6    0.00       0    999.0
 126    2:00   46.6    78    4.9   270      5.9   846.7    0.00       0    999.0
 126    2:10   46.3    78    4.9   271      6.0   846.8    0.00       0    999.0
 126    2:20   46.2    79    6.0   269      7.5   846.8    0.00       0    999.0
 126    2:30   46.4    79    4.3   281      6.2   846.9    0.00       0    999.0
 126    2:40   46.2    78    4.7   272      5.9   847.1    0.00       0    999.0
 126    2:50   46.4    77    4.9   269      6.7   847.2    0.00       0    999.0
 126    3:00   46.5    77    4.3   276      6.6   847.2    0.00       0    999.0
 126    3:10   46.5    77    3.1   293      4.2   847.3    0.00       0    999.0
 126    3:20   46.4    78    3.0   280      4.5   847.4    0.00       0    999.0
 126    3:30   46.2    78    2.5   274      3.5   847.5    0.00       0    999.0
 126    3:40   46.3    77    2.3   280      3.3   847.6    0.00       0    999.0
 126    3:50   46.1    78    3.5   274      4.5   847.8    0.00       0    999.0
 126    4:00   46.0    79    2.7   298      4.5   847.8    0.00       0    999.0
 126    4:10   46.0    79    3.6   281      5.7   847.8    0.00       0    999.0
 126    4:20   46.5    77    2.5   270      4.3   848.0    0.00       0    999.0
 126    4:30   46.0    78    1.7   297      3.0   848.0    0.00       0    999.0
 126    4:40   46.3    76    2.2   253      4.2   848.2    0.00       0    999.0
 126    4:50   46.0    77    3.1   268      5.5   848.3    0.00       1    999.0
 126    5:00   45.8    79    3.6   291      5.3   848.5    0.00       2    999.0
 126    5:10   46.7    79    3.9   307      5.6   848.6    0.00       8    999.0
 126    5:20   46.3    80    3.2   304      4.5   848.7    0.00      19    999.0
 126    5:30   46.5    80    2.6   291      3.9   848.8    0.00      38    999.0
 126    5:40   47.8    79    2.5   292      3.9   848.9    0.00      66    999.0
 126    5:50   48.9    77    1.4   310      2.9   849.0    0.00      55    999.0
 126    6:00   49.9    75    0.6   350      1.8   849.2    0.00     130    999.0
 126    6:10   51.5    69    1.7    33      2.8   849.3    0.00     169    999.0
 126    6:20   52.4    66    1.8    62      3.9   849.4    0.00     201    999.0
 126    6:30   51.4    68    2.4    98      3.9   849.6    0.00     233    999.0
 126    6:40   54.5    62    0.4    92      1.5   849.7    0.00     266    999.0
 126    6:50   55.4    60    1.2    63      1.8   849.8    0.00     299    999.0
 126    7:00   56.5    59    1.0    49      2.8   849.8    0.00     334    999.0
 126    7:10   57.0    59    0.8    82      2.6   849.8    0.00     367    999.0
 126    7:20   57.6    58    1.9    93      4.3   849.9    0.00     400    999.0
 126    7:30   56.7    60    2.4    89      4.0   850.0    0.00     434    999.0
 126    7:40   57.0    58    2.2    81      4.1   850.0    0.00     469    999.0
 126    7:50   57.6    57    2.1   100      5.2   850.1    0.00     502    999.0
 126    8:00   58.2    56    2.5   102      5.2   850.2    0.00     535    999.0
 126    8:10   58.4    56    2.4    93      4.6   850.2    0.00     567    999.0
 126    8:20   59.6    54    1.9    73      5.1   850.2    0.00     602    999.0
 126    8:30   62.4    49    1.1    92      3.6   850.2    0.00     635    999.0
 126    8:40   64.7    46    1.9    80      8.8   850.2    0.00     666    999.0
 126    8:50   64.4    46    2.9    21      8.9   850.2    0.00     696    999.0
 126    9:00   65.3    41    5.2   330     11.7   850.2    0.00     725    999.0
 126    9:10   64.3    40    5.4   328     11.6   850.3    0.00     752    999.0
 126    9:20   65.1    38    4.5   345     10.7   850.3    0.00     780    999.0
 126    9:30   65.4    35    5.2   338     13.3   850.3    0.00     804    999.0
 126    9:40   65.9    36    5.7   317     10.5   850.3    0.00     828    999.0
 126    9:50   66.3    34    5.5   324     13.3   850.4    0.00     851    999.0
 126   10:00   67.3    33    3.1   337      9.3   850.4    0.00     869    999.0
 126   10:10   68.1    32    4.3   335     12.4   850.4    0.00     888    999.0
 126   10:20   67.6    33    4.8   334     10.2   850.5    0.00     905    999.0
 126   10:30   67.7    33    4.3   313     10.5   850.5    0.00     921    999.0
 126   10:40   68.6    33    4.4   329     11.9   850.5    0.00     933    999.0
 126   10:50   69.0    32    4.8   303     15.1   850.4    0.00     947    999.0
 126   11:00   68.7    31    5.8   324     10.9   850.4    0.00     959    999.0
 126   11:10   69.4    28    3.9   335     10.3   850.4    0.00     975    999.0
 126   11:20   69.6    27    5.2   350     11.4   850.3    0.00     987    999.0
 126   11:30   70.5    27    4.5   338     12.6   850.2    0.00     994    999.0

Return to Yerington, Nevada graphs page.


Western Regional Climate Center,wrcc@dri.edu